Terminal Aerodrome Forecast
Issued by NWS North Platte, NE

Home | Current Version | Previous Version | Text Only | Print | Product List | Glossary On
Versions: 1 2 3 4 5 6 7 8 9 10 11 12 13 14 15 16 17 18 19 20 21 22 23 24 25 26
000
FTUS43 KLBF 031300 AAA
TAFLBF
TAF AMD
KLBF 031358Z 0314/0412 06008KT P6SM VCTS SCT050CB BKN150
      TEMPO 0314/0316 -SHRA BKN050
     FM031800 08010KT P6SM BKN040 OVC080
      TEMPO 0319/0323 P6SM TSRA BKN040CB
     FM032300 07014G23KT P6SM TSRA BKN035CB OVC050
      TEMPO 0400/0404 2SM +TSRA BKN030CB=

USA.gov is the U.S. government's official web portal to all federal, state and local government web resources and services.